sensor_id;sensor_type;location;lat;lon;timestamp;P1;durP1;ratioP1;P2;durP2;ratioP2
63492;SDS011;49638;47.526;10.028;2023-04-03T00:02:45;4.88;;;3.60;;
63492;SDS011;49638;47.526;10.028;2023-04-03T00:05:45;5.57;;;3.80;;
63492;SDS011;49638;47.526;10.028;2023-04-03T00:08:46;4.72;;;3.33;;
63492;SDS011;49638;47.526;10.028;2023-04-03T00:11:47;6.38;;;3.88;;
63492;SDS011;49638;47.526;10.028;2023-04-03T00:14:47;5.93;;;4.13;;
63492;SDS011;49638;47.526;10.028;2023-04-03T00:17:47;5.50;;;3.55;;
63492;SDS011;49638;47.526;10.028;2023-04-03T00:20:48;5.53;;;3.75;;
63492;SDS011;49638;47.526;10.028;2023-04-03T00:23:48;5.05;;;3.47;;
63492;SDS011;49638;47.526;10.028;2023-04-03T00:26:48;4.75;;;3.40;;
63492;SDS011;49638;47.526;10.028;2023-04-03T00:29:49;4.80;;;3.22;;
63492;SDS011;49638;47.526;10.028;2023-04-03T00:32:50;5.30;;;3.30;;
63492;SDS011;49638;47.526;10.028;2023-04-03T00:35:51;5.13;;;3.60;;
63492;SDS011;49638;47.526;10.028;2023-04-03T00:38:52;5.72;;;4.00;;
63492;SDS011;49638;47.526;10.028;2023-04-03T00:41:52;5.72;;;4.18;;
63492;SDS011;49638;47.526;10.028;2023-04-03T00:47:53;5.95;;;4.03;;
63492;SDS011;49638;47.526;10.028;2023-04-03T00:50:54;5.60;;;3.85;;
63492;SDS011;49638;47.526;10.028;2023-04-03T00:53:56;6.28;;;4.18;;
63492;SDS011;49638;47.526;10.028;2023-04-03T00:57:00;7.35;;;4.43;;
63492;SDS011;49638;47.526;10.028;2023-04-03T01:00:03;5.95;;;4.20;;
63492;SDS011;49638;47.526;10.028;2023-04-03T01:03:08;6.70;;;4.40;;
63492;SDS011;49638;47.526;10.028;2023-04-03T01:06:09;6.30;;;4.40;;
63492;SDS011;49638;47.526;10.028;2023-04-03T01:09:10;6.32;;;4.68;;
63492;SDS011;49638;47.526;10.028;2023-04-03T01:12:23;7.57;;;4.65;;
63492;SDS011;49638;47.526;10.028;2023-04-03T01:15:26;7.15;;;4.93;;
63492;SDS011;49638;47.526;10.028;2023-04-03T01:18:30;8.75;;;5.32;;
63492;SDS011;49638;47.526;10.028;2023-04-03T01:25:02;7.47;;;5.15;;
63492;SDS011;49638;47.526;10.028;2023-04-03T01:28:04;8.70;;;5.97;;
63492;SDS011;49638;47.526;10.028;2023-04-03T01:34:33;9.13;;;6.03;;
63492;SDS011;49638;47.526;10.028;2023-04-03T01:37:34;9.40;;;6.18;;
63492;SDS011;49638;47.526;10.028;2023-04-03T01:40:34;10.80;;;6.20;;
63492;SDS011;49638;47.526;10.028;2023-04-03T01:43:35;10.07;;;6.43;;
63492;SDS011;49638;47.526;10.028;2023-04-03T01:46:35;10.48;;;6.82;;
63492;SDS011;49638;47.526;10.028;2023-04-03T01:49:35;11.55;;;7.57;;
63492;SDS011;49638;47.526;10.028;2023-04-03T01:52:36;12.60;;;7.18;;
63492;SDS011;49638;47.526;10.028;2023-04-03T01:55:36;11.32;;;7.07;;
63492;SDS011;49638;47.526;10.028;2023-04-03T01:58:36;13.52;;;7.20;;
63492;SDS011;49638;47.526;10.028;2023-04-03T02:01:36;12.73;;;7.97;;
63492;SDS011;49638;47.526;10.028;2023-04-03T02:04:37;13.07;;;7.80;;
63492;SDS011;49638;47.526;10.028;2023-04-03T02:07:37;11.30;;;7.05;;
63492;SDS011;49638;47.526;10.028;2023-04-03T02:10:37;11.73;;;7.22;;
63492;SDS011;49638;47.526;10.028;2023-04-03T02:13:37;12.68;;;7.38;;
63492;SDS011;49638;47.526;10.028;2023-04-03T02:16:38;11.30;;;6.75;;
63492;SDS011;49638;47.526;10.028;2023-04-03T02:19:38;12.10;;;7.22;;
63492;SDS011;49638;47.526;10.028;2023-04-03T02:22:38;13.10;;;7.65;;
63492;SDS011;49638;47.526;10.028;2023-04-03T02:25:39;12.50;;;7.55;;
63492;SDS011;49638;47.526;10.028;2023-04-03T02:28:39;10.80;;;6.85;;
63492;SDS011;49638;47.526;10.028;2023-04-03T02:31:41;11.10;;;6.72;;
63492;SDS011;49638;47.526;10.028;2023-04-03T02:34:41;15.38;;;7.60;;
63492;SDS011;49638;47.526;10.028;2023-04-03T02:37:41;12.93;;;7.75;;
63492;SDS011;49638;47.526;10.028;2023-04-03T02:40:41;12.18;;;7.22;;
63492;SDS011;49638;47.526;10.028;2023-04-03T02:43:41;12.07;;;7.25;;
63492;SDS011;49638;47.526;10.028;2023-04-03T02:46:42;12.85;;;7.32;;
63492;SDS011;49638;47.526;10.028;2023-04-03T02:49:42;11.85;;;7.32;;
63492;SDS011;49638;47.526;10.028;2023-04-03T02:52:44;12.60;;;7.45;;
63492;SDS011;49638;47.526;10.028;2023-04-03T02:55:45;14.85;;;8.43;;
63492;SDS011;49638;47.526;10.028;2023-04-03T02:58:45;12.18;;;7.35;;
63492;SDS011;49638;47.526;10.028;2023-04-03T03:01:46;13.48;;;8.10;;
63492;SDS011;49638;47.526;10.028;2023-04-03T03:04:46;13.10;;;7.90;;
63492;SDS011;49638;47.526;10.028;2023-04-03T03:07:46;13.35;;;7.70;;
63492;SDS011;49638;47.526;10.028;2023-04-03T03:10:47;12.85;;;7.90;;
63492;SDS011;49638;47.526;10.028;2023-04-03T03:13:47;13.48;;;7.85;;
63492;SDS011;49638;47.526;10.028;2023-04-03T03:16:47;14.73;;;7.80;;
63492;SDS011;49638;47.526;10.028;2023-04-03T03:19:48;14.88;;;8.65;;
63492;SDS011;49638;47.526;10.028;2023-04-03T03:22:48;14.02;;;7.95;;
63492;SDS011;49638;47.526;10.028;2023-04-03T03:25:48;14.10;;;8.10;;
63492;SDS011;49638;47.526;10.028;2023-04-03T03:28:48;15.50;;;8.60;;
63492;SDS011;49638;47.526;10.028;2023-04-03T03:31:49;13.05;;;8.13;;
63492;SDS011;49638;47.526;10.028;2023-04-03T03:34:49;15.02;;;8.98;;
63492;SDS011;49638;47.526;10.028;2023-04-03T03:37:50;16.08;;;8.57;;
63492;SDS011;49638;47.526;10.028;2023-04-03T03:40:51;16.38;;;8.35;;
63492;SDS011;49638;47.526;10.028;2023-04-03T03:43:51;14.68;;;8.23;;
63492;SDS011;49638;47.526;10.028;2023-04-03T03:46:52;14.70;;;8.90;;
63492;SDS011;49638;47.526;10.028;2023-04-03T03:49:52;14.90;;;8.20;;
63492;SDS011;49638;47.526;10.028;2023-04-03T03:52:52;15.93;;;8.68;;
63492;SDS011;49638;47.526;10.028;2023-04-03T03:55:53;14.40;;;8.00;;
63492;SDS011;49638;47.526;10.028;2023-04-03T03:58:53;16.75;;;9.13;;
63492;SDS011;49638;47.526;10.028;2023-04-03T04:01:53;15.32;;;8.23;;
63492;SDS011;49638;47.526;10.028;2023-04-03T04:04:53;15.93;;;8.93;;
63492;SDS011;49638;47.526;10.028;2023-04-03T04:07:55;17.45;;;8.63;;
63492;SDS011;49638;47.526;10.028;2023-04-03T04:10:55;14.73;;;8.43;;
63492;SDS011;49638;47.526;10.028;2023-04-03T04:13:55;17.52;;;9.02;;
63492;SDS011;49638;47.526;10.028;2023-04-03T04:16:56;18.17;;;9.45;;
63492;SDS011;49638;47.526;10.028;2023-04-03T04:19:56;15.15;;;8.50;;
63492;SDS011;49638;47.526;10.028;2023-04-03T04:22:56;15.48;;;8.43;;
63492;SDS011;49638;47.526;10.028;2023-04-03T04:25:56;16.00;;;8.85;;
63492;SDS011;49638;47.526;10.028;2023-04-03T04:28:57;18.50;;;9.15;;
63492;SDS011;49638;47.526;10.028;2023-04-03T04:31:57;14.43;;;8.10;;
63492;SDS011;49638;47.526;10.028;2023-04-03T04:34:57;15.57;;;8.88;;
63492;SDS011;49638;47.526;10.028;2023-04-03T04:37:57;16.10;;;9.25;;
63492;SDS011;49638;47.526;10.028;2023-04-03T04:40:58;15.43;;;8.82;;
63492;SDS011;49638;47.526;10.028;2023-04-03T04:43:58;16.60;;;9.65;;
63492;SDS011;49638;47.526;10.028;2023-04-03T04:46:58;15.57;;;9.20;;
63492;SDS011;49638;47.526;10.028;2023-04-03T04:49:58;16.50;;;8.95;;
63492;SDS011;49638;47.526;10.028;2023-04-03T04:52:59;14.52;;;8.13;;
63492;SDS011;49638;47.526;10.028;2023-04-03T04:55:59;15.57;;;8.20;;
63492;SDS011;49638;47.526;10.028;2023-04-03T04:58:59;13.93;;;7.93;;
63492;SDS011;49638;47.526;10.028;2023-04-03T05:02:00;14.13;;;7.90;;
63492;SDS011;49638;47.526;10.028;2023-04-03T05:05:00;13.68;;;7.65;;
63492;SDS011;49638;47.526;10.028;2023-04-03T05:08:01;13.68;;;7.78;;
63492;SDS011;49638;47.526;10.028;2023-04-03T05:11:02;17.52;;;9.70;;
63492;SDS011;49638;47.526;10.028;2023-04-03T05:14:02;12.00;;;7.10;;
63492;SDS011;49638;47.526;10.028;2023-04-03T05:17:05;13.52;;;7.60;;
63492;SDS011;49638;47.526;10.028;2023-04-03T05:20:05;12.82;;;7.30;;
63492;SDS011;49638;47.526;10.028;2023-04-03T05:23:06;13.15;;;6.85;;
63492;SDS011;49638;47.526;10.028;2023-04-03T05:26:06;13.15;;;7.03;;
63492;SDS011;49638;47.526;10.028;2023-04-03T05:29:07;12.88;;;6.70;;
63492;SDS011;49638;47.526;10.028;2023-04-03T05:32:07;8.68;;;5.60;;
63492;SDS011;49638;47.526;10.028;2023-04-03T05:35:08;16.27;;;8.52;;
63492;SDS011;49638;47.526;10.028;2023-04-03T05:38:09;11.75;;;7.68;;
63492;SDS011;49638;47.526;10.028;2023-04-03T05:41:09;10.63;;;6.03;;
63492;SDS011;49638;47.526;10.028;2023-04-03T05:44:09;10.75;;;6.05;;
63492;SDS011;49638;47.526;10.028;2023-04-03T05:47:10;10.98;;;6.20;;
63492;SDS011;49638;47.526;10.028;2023-04-03T05:50:10;9.63;;;5.47;;
63492;SDS011;49638;47.526;10.028;2023-04-03T05:53:15;11.43;;;6.32;;
63492;SDS011;49638;47.526;10.028;2023-04-03T05:56:21;10.48;;;5.95;;
63492;SDS011;49638;47.526;10.028;2023-04-03T05:59:21;9.93;;;6.30;;
63492;SDS011;49638;47.526;10.028;2023-04-03T06:02:22;10.23;;;5.38;;
63492;SDS011;49638;47.526;10.028;2023-04-03T06:05:24;12.02;;;6.70;;
63492;SDS011;49638;47.526;10.028;2023-04-03T06:08:25;10.55;;;5.90;;
63492;SDS011;49638;47.526;10.028;2023-04-03T06:11:25;8.50;;;5.30;;
63492;SDS011;49638;47.526;10.028;2023-04-03T06:14:25;9.18;;;5.38;;
63492;SDS011;49638;47.526;10.028;2023-04-03T06:17:26;8.32;;;4.80;;
63492;SDS011;49638;47.526;10.028;2023-04-03T06:20:26;8.68;;;4.90;;
63492;SDS011;49638;47.526;10.028;2023-04-03T06:23:27;8.68;;;5.00;;
63492;SDS011;49638;47.526;10.028;2023-04-03T06:26:27;8.15;;;4.90;;
63492;SDS011;49638;47.526;10.028;2023-04-03T06:29:28;8.25;;;4.65;;
63492;SDS011;49638;47.526;10.028;2023-04-03T06:32:28;9.00;;;4.68;;
63492;SDS011;49638;47.526;10.028;2023-04-03T06:35:29;8.05;;;4.60;;
63492;SDS011;49638;47.526;10.028;2023-04-03T06:38:30;9.05;;;4.82;;
63492;SDS011;49638;47.526;10.028;2023-04-03T06:41:31;9.07;;;5.18;;
63492;SDS011;49638;47.526;10.028;2023-04-03T06:44:33;7.97;;;5.00;;
63492;SDS011;49638;47.526;10.028;2023-04-03T06:47:34;10.65;;;6.07;;
63492;SDS011;49638;47.526;10.028;2023-04-03T06:50:34;18.67;;;11.23;;
63492;SDS011;49638;47.526;10.028;2023-04-03T06:53:35;10.32;;;5.78;;
63492;SDS011;49638;47.526;10.028;2023-04-03T06:56:35;10.45;;;5.93;;
63492;SDS011;49638;47.526;10.028;2023-04-03T06:59:35;8.30;;;5.20;;
63492;SDS011;49638;47.526;10.028;2023-04-03T07:02:36;11.18;;;6.88;;
63492;SDS011;49638;47.526;10.028;2023-04-03T07:05:36;15.80;;;8.30;;
63492;SDS011;49638;47.526;10.028;2023-04-03T07:08:36;18.20;;;10.35;;
63492;SDS011;49638;47.526;10.028;2023-04-03T07:11:37;6.93;;;3.95;;
63492;SDS011;49638;47.526;10.028;2023-04-03T07:14:37;5.95;;;4.20;;
63492;SDS011;49638;47.526;10.028;2023-04-03T07:17:37;6.90;;;3.85;;
63492;SDS011;49638;47.526;10.028;2023-04-03T07:20:38;7.65;;;4.72;;
63492;SDS011;49638;47.526;10.028;2023-04-03T07:23:38;8.10;;;4.82;;
63492;SDS011;49638;47.526;10.028;2023-04-03T07:26:39;6.70;;;4.32;;
63492;SDS011;49638;47.526;10.028;2023-04-03T07:29:39;9.23;;;5.00;;
63492;SDS011;49638;47.526;10.028;2023-04-03T07:32:40;9.60;;;6.03;;
63492;SDS011;49638;47.526;10.028;2023-04-03T07:35:40;7.90;;;4.55;;
63492;SDS011;49638;47.526;10.028;2023-04-03T07:38:41;9.40;;;5.07;;
63492;SDS011;49638;47.526;10.028;2023-04-03T07:41:41;11.15;;;5.65;;
63492;SDS011;49638;47.526;10.028;2023-04-03T07:44:42;8.60;;;5.25;;
63492;SDS011;49638;47.526;10.028;2023-04-03T07:47:42;7.95;;;4.97;;
63492;SDS011;49638;47.526;10.028;2023-04-03T07:50:43;7.75;;;4.85;;
63492;SDS011;49638;47.526;10.028;2023-04-03T07:53:44;9.55;;;5.88;;
63492;SDS011;49638;47.526;10.028;2023-04-03T07:56:44;9.45;;;4.72;;
63492;SDS011;49638;47.526;10.028;2023-04-03T07:59:44;7.88;;;4.43;;
63492;SDS011;49638;47.526;10.028;2023-04-03T08:02:45;9.23;;;5.07;;
63492;SDS011;49638;47.526;10.028;2023-04-03T08:05:50;6.65;;;4.57;;
63492;SDS011;49638;47.526;10.028;2023-04-03T08:08:50;9.43;;;5.13;;
63492;SDS011;49638;47.526;10.028;2023-04-03T08:11:52;8.27;;;5.07;;
63492;SDS011;49638;47.526;10.028;2023-04-03T08:14:53;8.25;;;5.22;;
63492;SDS011;49638;47.526;10.028;2023-04-03T08:17:53;9.60;;;4.97;;
63492;SDS011;49638;47.526;10.028;2023-04-03T08:20:54;8.73;;;5.20;;
63492;SDS011;49638;47.526;10.028;2023-04-03T08:23:55;8.48;;;5.00;;
63492;SDS011;49638;47.526;10.028;2023-04-03T08:26:56;8.63;;;4.68;;
63492;SDS011;49638;47.526;10.028;2023-04-03T08:29:56;7.65;;;5.05;;
63492;SDS011;49638;47.526;10.028;2023-04-03T08:32:56;8.38;;;5.43;;
63492;SDS011;49638;47.526;10.028;2023-04-03T08:35:57;8.95;;;5.15;;
63492;SDS011;49638;47.526;10.028;2023-04-03T08:38:57;7.53;;;4.75;;
63492;SDS011;49638;47.526;10.028;2023-04-03T08:41:58;8.55;;;5.30;;
63492;SDS011;49638;47.526;10.028;2023-04-03T08:45:08;7.80;;;4.85;;
63492;SDS011;49638;47.526;10.028;2023-04-03T08:48:17;10.25;;;5.68;;
63492;SDS011;49638;47.526;10.028;2023-04-03T08:51:21;10.20;;;5.57;;
63492;SDS011;49638;47.526;10.028;2023-04-03T08:54:25;9.23;;;5.65;;
63492;SDS011;49638;47.526;10.028;2023-04-03T08:57:31;8.85;;;5.35;;
63492;SDS011;49638;47.526;10.028;2023-04-03T09:00:41;14.05;;;7.00;;
63492;SDS011;49638;47.526;10.028;2023-04-03T09:03:46;11.52;;;6.35;;
63492;SDS011;49638;47.526;10.028;2023-04-03T09:06:49;13.75;;;6.72;;
63492;SDS011;49638;47.526;10.028;2023-04-03T09:09:54;10.25;;;6.30;;
63492;SDS011;49638;47.526;10.028;2023-04-03T09:13:03;12.63;;;7.35;;
63492;SDS011;49638;47.526;10.028;2023-04-03T09:26:31;15.40;;;7.47;;
63492;SDS011;49638;47.526;10.028;2023-04-03T09:29:38;13.07;;;7.43;;
63492;SDS011;49638;47.526;10.028;2023-04-03T09:32:41;13.55;;;7.82;;
63492;SDS011;49638;47.526;10.028;2023-04-03T09:35:42;12.10;;;7.03;;
63492;SDS011;49638;47.526;10.028;2023-04-03T09:38:43;13.23;;;7.53;;
63492;SDS011;49638;47.526;10.028;2023-04-03T09:45:28;12.73;;;7.72;;
63492;SDS011;49638;47.526;10.028;2023-04-03T09:48:36;14.85;;;7.13;;
63492;SDS011;49638;47.526;10.028;2023-04-03T09:51:36;12.85;;;7.63;;
63492;SDS011;49638;47.526;10.028;2023-04-03T09:54:37;17.65;;;7.95;;
63492;SDS011;49638;47.526;10.028;2023-04-03T09:57:39;13.25;;;7.45;;
63492;SDS011;49638;47.526;10.028;2023-04-03T10:00:40;16.38;;;7.60;;
63492;SDS011;49638;47.526;10.028;2023-04-03T10:03:40;12.98;;;8.00;;
63492;SDS011;49638;47.526;10.028;2023-04-03T10:06:47;13.85;;;7.43;;
63492;SDS011;49638;47.526;10.028;2023-04-03T10:09:54;12.18;;;7.35;;
63492;SDS011;49638;47.526;10.028;2023-04-03T10:16:14;13.57;;;7.47;;
63492;SDS011;49638;47.526;10.028;2023-04-03T10:19:29;11.32;;;6.80;;
63492;SDS011;49638;47.526;10.028;2023-04-03T10:22:38;12.45;;;7.40;;
63492;SDS011;49638;47.526;10.028;2023-04-03T10:29:22;12.95;;;7.28;;
63492;SDS011;49638;47.526;10.028;2023-04-03T10:39:27;11.32;;;6.75;;
63492;SDS011;49638;47.526;10.028;2023-04-03T10:46:07;8.98;;;6.10;;
63492;SDS011;49638;47.526;10.028;2023-04-03T10:55:56;8.30;;;5.68;;
63492;SDS011;49638;47.526;10.028;2023-04-03T11:02:32;9.10;;;5.88;;
63492;SDS011;49638;47.526;10.028;2023-04-03T11:05:50;9.68;;;5.25;;
63492;SDS011;49638;47.526;10.028;2023-04-03T11:08:55;8.85;;;5.80;;
63492;SDS011;49638;47.526;10.028;2023-04-03T11:15:23;8.70;;;5.38;;
63492;SDS011;49638;47.526;10.028;2023-04-03T11:18:31;8.77;;;5.15;;
63492;SDS011;49638;47.526;10.028;2023-04-03T11:21:41;6.97;;;4.50;;
63492;SDS011;49638;47.526;10.028;2023-04-03T11:24:46;6.78;;;5.15;;
63492;SDS011;49638;47.526;10.028;2023-04-03T11:27:57;6.90;;;5.03;;
63492;SDS011;49638;47.526;10.028;2023-04-03T11:31:11;6.97;;;4.80;;
63492;SDS011;49638;47.526;10.028;2023-04-03T11:34:33;6.63;;;4.32;;
63492;SDS011;49638;47.526;10.028;2023-04-03T11:37:39;5.38;;;4.40;;
63492;SDS011;49638;47.526;10.028;2023-04-03T11:40:41;8.18;;;4.72;;
63492;SDS011;49638;47.526;10.028;2023-04-03T11:44:01;7.70;;;4.63;;
63492;SDS011;49638;47.526;10.028;2023-04-03T11:47:06;8.85;;;6.15;;
63492;SDS011;49638;47.526;10.028;2023-04-03T11:50:08;7.03;;;4.45;;
63492;SDS011;49638;47.526;10.028;2023-04-03T11:53:35;6.55;;;5.00;;
63492;SDS011;49638;47.526;10.028;2023-04-03T11:56:37;6.05;;;4.43;;
63492;SDS011;49638;47.526;10.028;2023-04-03T11:59:37;6.68;;;4.85;;
63492;SDS011;49638;47.526;10.028;2023-04-03T12:02:38;7.75;;;5.15;;
63492;SDS011;49638;47.526;10.028;2023-04-03T12:05:38;6.28;;;4.47;;
63492;SDS011;49638;47.526;10.028;2023-04-03T12:11:39;5.07;;;3.97;;
63492;SDS011;49638;47.526;10.028;2023-04-03T12:14:39;5.57;;;4.28;;
63492;SDS011;49638;47.526;10.028;2023-04-03T12:17:40;4.65;;;3.70;;
63492;SDS011;49638;47.526;10.028;2023-04-03T12:20:53;5.28;;;3.92;;
63492;SDS011;49638;47.526;10.028;2023-04-03T12:23:57;5.88;;;4.07;;
63492;SDS011;49638;47.526;10.028;2023-04-03T12:27:05;7.03;;;4.10;;
63492;SDS011;49638;47.526;10.028;2023-04-03T12:30:25;6.20;;;4.45;;
63492;SDS011;49638;47.526;10.028;2023-04-03T12:33:30;6.20;;;4.68;;
63492;SDS011;49638;47.526;10.028;2023-04-03T12:37:21;6.03;;;4.00;;
63492;SDS011;49638;47.526;10.028;2023-04-03T12:40:34;19.25;;;11.57;;
63492;SDS011;49638;47.526;10.028;2023-04-03T12:47:25;7.88;;;4.55;;
63492;SDS011;49638;47.526;10.028;2023-04-03T12:50:30;6.45;;;3.90;;
63492;SDS011;49638;47.526;10.028;2023-04-03T12:56:34;7.45;;;4.88;;
63492;SDS011;49638;47.526;10.028;2023-04-03T12:59:36;8.90;;;5.88;;
63492;SDS011;49638;47.526;10.028;2023-04-03T13:02:38;13.13;;;7.60;;
63492;SDS011;49638;47.526;10.028;2023-04-03T13:05:38;11.63;;;6.18;;
63492;SDS011;49638;47.526;10.028;2023-04-03T13:08:38;8.90;;;4.57;;
63492;SDS011;49638;47.526;10.028;2023-04-03T13:11:52;8.60;;;5.30;;
63492;SDS011;49638;47.526;10.028;2023-04-03T13:15:01;8.13;;;5.20;;
63492;SDS011;49638;47.526;10.028;2023-04-03T13:18:25;6.40;;;4.75;;
63492;SDS011;49638;47.526;10.028;2023-04-03T13:21:29;7.15;;;4.13;;
63492;SDS011;49638;47.526;10.028;2023-04-03T13:24:33;7.80;;;5.00;;
63492;SDS011;49638;47.526;10.028;2023-04-03T13:30:40;6.78;;;4.40;;
63492;SDS011;49638;47.526;10.028;2023-04-03T13:34:09;7.93;;;5.45;;
63492;SDS011;49638;47.526;10.028;2023-04-03T13:37:25;7.18;;;4.97;;
63492;SDS011;49638;47.526;10.028;2023-04-03T13:40:30;6.80;;;4.65;;
63492;SDS011;49638;47.526;10.028;2023-04-03T13:43:32;7.25;;;4.78;;
63492;SDS011;49638;47.526;10.028;2023-04-03T13:46:35;7.95;;;4.50;;
63492;SDS011;49638;47.526;10.028;2023-04-03T13:49:43;7.97;;;4.82;;
63492;SDS011;49638;47.526;10.028;2023-04-03T13:52:50;6.90;;;4.70;;
63492;SDS011;49638;47.526;10.028;2023-04-03T13:56:04;7.53;;;4.50;;
63492;SDS011;49638;47.526;10.028;2023-04-03T14:02:12;8.18;;;5.03;;
63492;SDS011;49638;47.526;10.028;2023-04-03T14:05:17;6.72;;;4.57;;
63492;SDS011;49638;47.526;10.028;2023-04-03T14:08:21;7.10;;;4.70;;
63492;SDS011;49638;47.526;10.028;2023-04-03T14:11:26;8.20;;;5.38;;
63492;SDS011;49638;47.526;10.028;2023-04-03T14:14:31;6.65;;;4.72;;
63492;SDS011;49638;47.526;10.028;2023-04-03T14:17:33;9.43;;;5.35;;
63492;SDS011;49638;47.526;10.028;2023-04-03T14:20:33;7.72;;;4.78;;
63492;SDS011;49638;47.526;10.028;2023-04-03T14:23:33;7.22;;;5.05;;
63492;SDS011;49638;47.526;10.028;2023-04-03T14:26:34;8.35;;;5.00;;
63492;SDS011;49638;47.526;10.028;2023-04-03T14:29:35;7.38;;;4.40;;
63492;SDS011;49638;47.526;10.028;2023-04-03T14:32:35;7.75;;;4.93;;
63492;SDS011;49638;47.526;10.028;2023-04-03T14:35:36;10.68;;;5.78;;
63492;SDS011;49638;47.526;10.028;2023-04-03T14:38:36;7.60;;;5.10;;
63492;SDS011;49638;47.526;10.028;2023-04-03T14:41:37;7.43;;;5.38;;
63492;SDS011;49638;47.526;10.028;2023-04-03T14:44:37;11.73;;;8.20;;
63492;SDS011;49638;47.526;10.028;2023-04-03T14:47:47;8.70;;;5.63;;
63492;SDS011;49638;47.526;10.028;2023-04-03T14:50:51;11.68;;;7.32;;
63492;SDS011;49638;47.526;10.028;2023-04-03T14:53:52;8.93;;;6.10;;
63492;SDS011;49638;47.526;10.028;2023-04-03T14:56:54;7.45;;;5.47;;
63492;SDS011;49638;47.526;10.028;2023-04-03T14:59:55;9.40;;;6.40;;
63492;SDS011;49638;47.526;10.028;2023-04-03T15:02:55;10.05;;;5.40;;
63492;SDS011;49638;47.526;10.028;2023-04-03T15:05:56;8.85;;;6.03;;
63492;SDS011;49638;47.526;10.028;2023-04-03T15:08:57;11.60;;;6.50;;
63492;SDS011;49638;47.526;10.028;2023-04-03T15:11:57;10.30;;;6.15;;
63492;SDS011;49638;47.526;10.028;2023-04-03T15:14:57;9.48;;;6.32;;
63492;SDS011;49638;47.526;10.028;2023-04-03T15:17:58;9.10;;;6.25;;
63492;SDS011;49638;47.526;10.028;2023-04-03T15:20:59;7.43;;;5.68;;
63492;SDS011;49638;47.526;10.028;2023-04-03T15:23:59;8.20;;;5.80;;
63492;SDS011;49638;47.526;10.028;2023-04-03T15:26:59;10.35;;;7.60;;
63492;SDS011;49638;47.526;10.028;2023-04-03T15:30:01;6.63;;;4.85;;
63492;SDS011;49638;47.526;10.028;2023-04-03T15:33:02;6.97;;;5.40;;
63492;SDS011;49638;47.526;10.028;2023-04-03T15:36:03;7.80;;;5.82;;
63492;SDS011;49638;47.526;10.028;2023-04-03T15:39:04;10.35;;;5.82;;
63492;SDS011;49638;47.526;10.028;2023-04-03T15:42:05;9.35;;;6.07;;
63492;SDS011;49638;47.526;10.028;2023-04-03T15:45:08;9.57;;;6.20;;
63492;SDS011;49638;47.526;10.028;2023-04-03T15:48:09;8.30;;;6.03;;
63492;SDS011;49638;47.526;10.028;2023-04-03T15:51:10;8.48;;;5.85;;
63492;SDS011;49638;47.526;10.028;2023-04-03T15:54:11;9.50;;;5.57;;
63492;SDS011;49638;47.526;10.028;2023-04-03T15:57:12;8.55;;;5.60;;
63492;SDS011;49638;47.526;10.028;2023-04-03T16:00:12;8.55;;;5.72;;
63492;SDS011;49638;47.526;10.028;2023-04-03T16:03:16;9.52;;;5.82;;
63492;SDS011;49638;47.526;10.028;2023-04-03T16:06:19;9.43;;;6.18;;
63492;SDS011;49638;47.526;10.028;2023-04-03T16:09:20;9.18;;;5.65;;
63492;SDS011;49638;47.526;10.028;2023-04-03T16:12:20;8.40;;;5.30;;
63492;SDS011;49638;47.526;10.028;2023-04-03T16:15:20;8.30;;;5.45;;
63492;SDS011;49638;47.526;10.028;2023-04-03T16:18:21;8.02;;;5.53;;
63492;SDS011;49638;47.526;10.028;2023-04-03T16:21:21;7.47;;;4.97;;
63492;SDS011;49638;47.526;10.028;2023-04-03T16:24:22;8.80;;;5.13;;
63492;SDS011;49638;47.526;10.028;2023-04-03T16:27:23;8.68;;;5.57;;
63492;SDS011;49638;47.526;10.028;2023-04-03T16:30:27;6.40;;;4.82;;
63492;SDS011;49638;47.526;10.028;2023-04-03T16:33:28;9.75;;;5.60;;
63492;SDS011;49638;47.526;10.028;2023-04-03T16:36:30;8.27;;;5.25;;
63492;SDS011;49638;47.526;10.028;2023-04-03T16:39:30;9.45;;;5.10;;
63492;SDS011;49638;47.526;10.028;2023-04-03T16:42:30;8.63;;;5.72;;
63492;SDS011;49638;47.526;10.028;2023-04-03T16:45:31;8.18;;;5.35;;
63492;SDS011;49638;47.526;10.028;2023-04-03T16:48:31;7.22;;;5.15;;
63492;SDS011;49638;47.526;10.028;2023-04-03T16:51:31;7.53;;;5.18;;
63492;SDS011;49638;47.526;10.028;2023-04-03T16:54:31;8.63;;;5.13;;
63492;SDS011;49638;47.526;10.028;2023-04-03T16:57:32;7.68;;;4.78;;
63492;SDS011;49638;47.526;10.028;2023-04-03T17:00:32;7.57;;;5.20;;
63492;SDS011;49638;47.526;10.028;2023-04-03T17:03:33;8.68;;;5.40;;
63492;SDS011;49638;47.526;10.028;2023-04-03T17:06:34;8.23;;;5.25;;
63492;SDS011;49638;47.526;10.028;2023-04-03T17:09:35;7.13;;;4.90;;
63492;SDS011;49638;47.526;10.028;2023-04-03T17:12:35;11.65;;;5.00;;
63492;SDS011;49638;47.526;10.028;2023-04-03T17:15:35;9.15;;;4.93;;
63492;SDS011;49638;47.526;10.028;2023-04-03T17:18:36;9.02;;;5.85;;
63492;SDS011;49638;47.526;10.028;2023-04-03T17:21:37;7.80;;;4.88;;
63492;SDS011;49638;47.526;10.028;2023-04-03T17:24:37;8.40;;;4.85;;
63492;SDS011;49638;47.526;10.028;2023-04-03T17:27:38;7.65;;;5.07;;
63492;SDS011;49638;47.526;10.028;2023-04-03T17:30:38;8.07;;;4.85;;
63492;SDS011;49638;47.526;10.028;2023-04-03T17:33:38;6.20;;;4.63;;
63492;SDS011;49638;47.526;10.028;2023-04-03T17:36:39;8.93;;;4.88;;
63492;SDS011;49638;47.526;10.028;2023-04-03T17:39:40;9.38;;;5.03;;
63492;SDS011;49638;47.526;10.028;2023-04-03T17:42:40;9.10;;;5.03;;
63492;SDS011;49638;47.526;10.028;2023-04-03T17:45:40;6.50;;;4.40;;
63492;SDS011;49638;47.526;10.028;2023-04-03T17:48:41;7.53;;;4.85;;
63492;SDS011;49638;47.526;10.028;2023-04-03T17:51:41;12.55;;;7.50;;
63492;SDS011;49638;47.526;10.028;2023-04-03T17:54:41;10.55;;;6.32;;
63492;SDS011;49638;47.526;10.028;2023-04-03T17:57:42;10.60;;;6.18;;
63492;SDS011;49638;47.526;10.028;2023-04-03T18:00:43;8.05;;;5.47;;
63492;SDS011;49638;47.526;10.028;2023-04-03T18:03:43;9.93;;;6.13;;
63492;SDS011;49638;47.526;10.028;2023-04-03T18:06:50;8.55;;;5.05;;
63492;SDS011;49638;47.526;10.028;2023-04-03T18:09:52;7.68;;;5.30;;
63492;SDS011;49638;47.526;10.028;2023-04-03T18:12:53;15.73;;;9.55;;
63492;SDS011;49638;47.526;10.028;2023-04-03T18:15:54;9.15;;;5.90;;
63492;SDS011;49638;47.526;10.028;2023-04-03T18:18:55;7.65;;;5.20;;
63492;SDS011;49638;47.526;10.028;2023-04-03T18:21:56;10.55;;;6.30;;
63492;SDS011;49638;47.526;10.028;2023-04-03T18:24:59;11.48;;;7.38;;
63492;SDS011;49638;47.526;10.028;2023-04-03T18:27:59;8.88;;;5.35;;
63492;SDS011;49638;47.526;10.028;2023-04-03T18:31:05;7.68;;;5.32;;
63492;SDS011;49638;47.526;10.028;2023-04-03T18:34:09;9.57;;;5.68;;
63492;SDS011;49638;47.526;10.028;2023-04-03T18:37:10;9.90;;;6.32;;
63492;SDS011;49638;47.526;10.028;2023-04-03T18:40:11;12.38;;;7.07;;
63492;SDS011;49638;47.526;10.028;2023-04-03T18:43:12;10.85;;;6.28;;
63492;SDS011;49638;47.526;10.028;2023-04-03T18:46:13;11.27;;;6.32;;
63492;SDS011;49638;47.526;10.028;2023-04-03T18:49:13;8.18;;;4.57;;
63492;SDS011;49638;47.526;10.028;2023-04-03T18:52:15;22.73;;;11.25;;
63492;SDS011;49638;47.526;10.028;2023-04-03T18:55:19;8.35;;;5.60;;
63492;SDS011;49638;47.526;10.028;2023-04-03T18:58:19;7.43;;;4.45;;
63492;SDS011;49638;47.526;10.028;2023-04-03T19:01:19;6.28;;;4.03;;
63492;SDS011;49638;47.526;10.028;2023-04-03T19:04:20;11.13;;;4.18;;
63492;SDS011;49638;47.526;10.028;2023-04-03T19:07:21;9.43;;;4.68;;